Time;durP1;ratioP1;P1;durP2;ratioP2;P2;SDS_P1;SDS_P2;PMS_P1;PMS_P2;Temp;Humidity;BMP_temperature;BMP_pressure;BME280_temperature;BME280_humidity;BME280_pressure;Samples;Min_cycle;Max_cycle;Signal;HPM_P1;HPM_P2
2023/03/30 00:01:47;;;;;;;14.30;11.37;;;11.50;99.90;;;;;;4993476;28;20601;-77
2023/03/30 00:04:12;;;;;;;14.77;11.90;;;11.50;99.90;;;;;;4993565;28;20408;-77
2023/03/30 00:06:38;;;;;;;13.73;10.63;;;11.40;99.90;;;;;;4993262;28;20183;-77
2023/03/30 00:09:05;;;;;;;14.00;12.43;;;11.40;99.90;;;;;;4993487;28;20229;-77
2023/03/30 00:11:32;;;;;;;16.10;11.40;;;11.40;99.90;;;;;;4993469;28;20174;-76
2023/03/30 00:13:59;;;;;;;14.40;11.37;;;11.40;99.90;;;;;;4992170;28;20428;-77
2023/03/30 00:16:24;;;;;;;14.80;11.23;;;11.30;99.90;;;;;;4991142;28;20478;-77
2023/03/30 00:18:50;;;;;;;12.83;9.40;;;11.30;99.90;;;;;;4993440;28;20412;-77
2023/03/30 00:21:19;;;;;;;15.43;12.20;;;11.30;99.90;;;;;;4993466;28;20699;-78
2023/03/30 00:23:46;;;;;;;16.00;12.30;;;11.30;99.90;;;;;;4993054;28;20700;-77
2023/03/30 00:26:12;;;;;;;13.07;10.47;;;11.30;99.90;;;;;;4993172;28;20460;-78
2023/03/30 00:28:38;;;;;;;14.63;12.13;;;11.30;99.90;;;;;;4992582;28;20531;-77
2023/03/30 00:31:03;;;;;;;16.67;11.40;;;11.40;99.90;;;;;;4993058;28;20412;-80
2023/03/30 00:33:30;;;;;;;14.37;10.97;;;11.40;99.90;;;;;;4990956;28;20184;-78
2023/03/30 00:35:56;;;;;;;16.90;12.50;;;11.30;99.90;;;;;;4992423;28;20177;-77
2023/03/30 00:38:22;;;;;;;14.73;10.63;;;11.40;99.90;;;;;;4992986;28;20447;-77
2023/03/30 00:40:57;;;;;;;14.10;10.10;;;11.30;99.90;;;;;;4993232;28;20413;-77
2023/03/30 00:43:24;;;;;;;15.13;12.00;;;11.20;99.90;;;;;;4991958;28;20435;-78
2023/03/30 00:45:50;;;;;;;14.50;12.20;;;11.20;99.90;;;;;;4993240;28;20421;-77
2023/03/30 00:48:21;;;;;;;19.77;9.97;;;11.10;99.90;;;;;;4993226;28;20494;-77
2023/03/30 00:50:50;;;;;;;14.13;10.70;;;11.10;99.90;;;;;;4992050;28;20427;-77
2023/03/30 00:53:32;;;;;;;14.40;12.13;;;11.10;99.90;;;;;;4991911;28;20422;-78
2023/03/30 00:55:58;;;;;;;14.20;10.70;;;11.20;99.90;;;;;;4995269;28;20413;-77
2023/03/30 00:58:25;;;;;;;16.50;10.10;;;11.30;99.90;;;;;;4995510;28;20431;-77
2023/03/30 01:00:51;;;;;;;16.70;10.83;;;11.40;99.90;;;;;;4996699;28;20750;-78
2023/03/30 01:03:26;;;;;;;15.90;11.40;;;11.50;99.90;;;;;;4996745;28;20458;-78
2023/03/30 01:05:53;;;;;;;14.50;12.17;;;11.40;99.90;;;;;;4996627;28;20168;-77
2023/03/30 01:08:22;;;;;;;14.60;11.07;;;11.40;99.90;;;;;;4996115;28;20418;-78
2023/03/30 01:10:48;;;;;;;16.20;11.90;;;11.40;99.90;;;;;;4996505;28;20423;-78
2023/03/30 01:13:14;;;;;;;16.13;12.13;;;11.50;99.90;;;;;;4995261;28;20430;-78
2023/03/30 01:16:00;;;;;;;18.70;12.20;;;11.30;99.90;;;;;;4996555;28;20551;-78
2023/03/30 01:18:34;;;;;;;13.90;10.37;;;11.30;99.90;;;;;;4995220;28;20836;-78
2023/03/30 01:21:08;;;;;;;15.20;11.43;;;11.20;99.90;;;;;;4996304;28;20923;-78
2023/03/30 01:24:14;;;;;;;14.00;11.20;;;11.10;99.90;;;;;;4995948;28;20462;-78
2023/03/30 01:26:47;;;;;;;13.83;10.27;;;11.00;99.90;;;;;;4996090;28;20472;-78
2023/03/30 01:29:28;;;;;;;13.87;11.30;;;10.90;99.90;;;;;;4994959;28;20419;-78
2023/03/30 01:32:36;;;;;;;13.83;10.83;;;10.80;99.90;;;;;;4996199;28;20784;-78
2023/03/30 01:35:30;;;;;;;14.87;10.17;;;10.90;99.90;;;;;;4996113;28;20491;-78
2023/03/30 01:38:23;;;;;;;14.07;10.60;;;10.90;99.90;;;;;;4994445;28;20533;-78
2023/03/30 01:41:21;;;;;;;16.43;12.27;;;11.00;99.90;;;;;;4996011;28;20409;-77
2023/03/30 01:44:22;;;;;;;16.07;11.40;;;11.00;99.90;;;;;;4995982;28;20416;-79
2023/03/30 01:46:53;;;;;;;16.17;11.77;;;11.00;99.90;;;;;;4987318;28;20467;-77
2023/03/30 01:49:24;;;;;;;14.10;10.67;;;11.20;99.90;;;;;;4994565;28;20432;-77
2023/03/30 01:52:09;;;;;;;13.70;11.67;;;11.20;99.90;;;;;;4995553;28;20428;-78
2023/03/30 01:54:48;;;;;;;13.93;10.57;;;11.10;99.90;;;;;;4995749;28;20553;-76
2023/03/30 01:57:24;;;;;;;15.50;11.33;;;11.20;99.90;;;;;;4995627;28;20500;-77
2023/03/30 01:59:56;;;;;;;15.00;9.70;;;11.10;99.90;;;;;;4995655;28;20491;-76
2023/03/30 02:02:26;;;;;;;16.13;11.80;;;11.10;99.90;;;;;;4995695;28;20442;-75
2023/03/30 02:04:56;;;;;;;15.03;10.87;;;11.20;99.90;;;;;;4995480;28;20412;-75
2023/03/30 02:07:25;;;;;;;15.40;10.43;;;11.30;99.90;;;;;;4994553;28;20415;-76
2023/03/30 02:09:54;;;;;;;11.77;10.53;;;11.40;99.90;;;;;;4995444;28;20411;-77
2023/03/30 02:12:21;;;;;;;14.23;10.40;;;11.50;99.90;;;;;;4995423;28;20815;-77
2023/03/30 02:14:48;;;;;;;13.20;10.00;;;11.50;99.90;;;;;;4995303;28;20418;-76
2023/03/30 02:17:21;;;;;;;15.33;10.90;;;11.30;99.90;;;;;;4995171;28;20531;-76
2023/03/30 02:19:48;;;;;;;12.13;10.30;;;11.10;99.90;;;;;;4995283;28;20466;-76
2023/03/30 02:22:15;;;;;;;14.33;9.67;;;11.10;99.90;;;;;;4994889;28;20454;-76
2023/03/30 02:24:44;;;;;;;17.23;10.97;;;11.10;99.90;;;;;;4995281;28;20432;-76
2023/03/30 02:27:10;;;;;;;17.50;11.23;;;11.00;99.90;;;;;;4994905;28;20515;-76
2023/03/30 02:29:38;;;;;;;14.93;11.67;;;11.00;99.90;;;;;;4994986;28;20422;-78
2023/03/30 02:32:04;;;;;;;14.87;10.37;;;10.80;99.90;;;;;;4995012;28;20419;-78
2023/03/30 02:34:48;;;;;;;17.23;12.20;;;10.80;99.90;;;;;;4994944;28;20430;-77
2023/03/30 02:37:36;;;;;;;17.37;11.67;;;10.70;99.90;;;;;;4994529;28;20218;-77
2023/03/30 02:40:26;;;;;;;14.80;10.83;;;10.70;99.90;;;;;;4994871;28;20742;-77
2023/03/30 02:43:10;;;;;;;17.40;10.77;;;10.70;99.90;;;;;;4994837;28;20893;-77
2023/03/30 02:46:08;;;;;;;16.87;10.93;;;10.70;99.90;;;;;;4994782;28;20419;-77
2023/03/30 02:49:07;;;;;;;14.10;11.60;;;10.80;99.90;;;;;;4994686;28;20407;-77
2023/03/30 02:51:49;;;;;;;17.80;11.73;;;10.90;99.90;;;;;;4994381;28;20419;-76
2023/03/30 02:54:46;;;;;;;17.50;12.23;;;11.00;99.90;;;;;;4994704;28;20417;-77
2023/03/30 02:57:26;;;;;;;16.47;12.33;;;11.10;99.90;;;;;;4994598;28;20496;-77
2023/03/30 03:00:07;;;;;;;14.90;10.70;;;11.20;99.90;;;;;;4993223;28;20465;-77
2023/03/30 03:02:39;;;;;;;14.57;11.30;;;11.10;99.90;;;;;;4993332;28;20505;-77
2023/03/30 03:05:10;;;;;;;16.67;11.47;;;11.10;99.90;;;;;;4993211;28;20450;-76
2023/03/30 03:07:37;;;;;;;12.20;9.00;;;11.10;99.90;;;;;;4994072;28;20508;-77
2023/03/30 03:10:03;;;;;;;17.70;11.80;;;11.10;99.90;;;;;;4993058;28;20408;-77
2023/03/30 03:12:28;;;;;;;16.70;12.47;;;11.00;99.90;;;;;;4994276;28;20436;-77
2023/03/30 03:14:54;;;;;;;15.33;10.97;;;11.00;99.90;;;;;;4994038;28;20467;-76
2023/03/30 03:17:21;;;;;;;17.07;12.33;;;10.90;99.90;;;;;;4994157;28;20675;-76
2023/03/30 03:19:47;;;;;;;15.63;11.50;;;11.00;99.90;;;;;;4993271;28;20630;-76
2023/03/30 03:22:12;;;;;;;19.10;11.73;;;10.80;99.90;;;;;;4993870;28;20779;-75
2023/03/30 03:24:39;;;;;;;18.20;11.90;;;10.90;99.90;;;;;;4994055;28;20425;-75
2023/03/30 03:27:05;;;;;;;19.03;11.90;;;10.90;99.90;;;;;;4992354;28;20746;-76
2023/03/30 03:29:31;;;;;;;16.40;11.53;;;10.90;99.90;;;;;;4994104;28;20502;-75
2023/03/30 03:31:56;;;;;;;17.73;12.03;;;10.80;99.90;;;;;;4993957;28;20429;-75
2023/03/30 03:34:24;;;;;;;16.10;11.47;;;10.80;99.90;;;;;;4993962;28;20185;-75
2023/03/30 03:36:52;;;;;;;15.70;12.17;;;10.80;99.90;;;;;;4993504;28;20213;-75
2023/03/30 03:39:18;;;;;;;20.60;12.80;;;10.70;99.90;;;;;;4993849;28;20411;-75
2023/03/30 03:41:43;;;;;;;18.67;11.60;;;10.70;99.90;;;;;;4993830;28;20422;-75
2023/03/30 03:44:08;;;;;;;22.97;12.10;;;10.60;99.90;;;;;;4993839;28;20625;-75
2023/03/30 03:46:34;;;;;;;18.40;12.50;;;10.70;99.90;;;;;;4993727;28;20256;-75
2023/03/30 03:49:00;;;;;;;17.73;11.63;;;10.80;99.90;;;;;;4993766;28;20624;-75
2023/03/30 03:51:28;;;;;;;17.27;12.20;;;10.80;99.90;;;;;;4992151;28;20175;-76
2023/03/30 03:53:53;;;;;;;17.80;11.63;;;10.80;99.90;;;;;;4993712;28;20176;-76
2023/03/30 03:56:19;;;;;;;13.60;10.07;;;10.80;99.90;;;;;;4993701;28;21027;-75
2023/03/30 03:58:44;;;;;;;15.53;11.17;;;10.80;99.90;;;;;;4993722;28;20640;-75
2023/03/30 04:01:13;;;;;;;20.83;12.60;;;10.90;99.90;;;;;;4993549;28;20177;-77
2023/03/30 04:03:39;;;;;;;17.13;11.50;;;10.80;99.90;;;;;;4993639;28;20202;-77
2023/03/30 04:06:04;;;;;;;16.30;11.20;;;10.80;99.90;;;;;;4993152;28;20473;-76
2023/03/30 04:08:30;;;;;;;15.27;10.90;;;10.80;99.90;;;;;;4993489;28;20424;-78
2023/03/30 04:11:06;;;;;;;19.57;13.00;;;10.90;99.90;;;;;;4993526;28;20583;-79
2023/03/30 04:13:32;;;;;;;15.40;11.43;;;10.80;99.90;;;;;;4993517;28;20172;-76
2023/03/30 04:15:58;;;;;;;17.73;12.40;;;10.80;99.90;;;;;;4993453;28;20420;-76
2023/03/30 04:18:23;;;;;;;14.97;11.47;;;10.80;99.90;;;;;;4992323;28;20422;-76
2023/03/30 04:20:49;;;;;;;23.37;13.43;;;10.80;99.90;;;;;;4993254;28;20189;-78
2023/03/30 04:23:20;;;;;;;17.50;12.13;;;10.70;99.90;;;;;;4993421;28;20214;-76
2023/03/30 04:25:46;;;;;;;16.80;11.43;;;10.60;99.90;;;;;;4993215;28;20226;-76
2023/03/30 04:28:11;;;;;;;13.80;10.70;;;10.50;99.90;;;;;;4993387;28;20418;-76
2023/03/30 04:30:37;;;;;;;13.63;11.10;;;10.50;99.90;;;;;;4995220;28;20183;-76
2023/03/30 04:33:03;;;;;;;14.50;11.70;;;10.50;99.90;;;;;;4997241;28;20176;-76
2023/03/30 04:35:30;;;;;;;20.33;12.40;;;10.50;99.90;;;;;;4997225;28;20425;-76
2023/03/30 04:37:56;;;;;;;16.30;11.57;;;10.50;99.90;;;;;;4996666;28;20477;-76
2023/03/30 04:40:22;;;;;;;14.27;11.37;;;10.40;99.90;;;;;;4997062;28;20520;-79
2023/03/30 04:42:48;;;;;;;16.97;11.70;;;10.40;99.90;;;;;;4997033;28;20512;-76
2023/03/30 04:45:15;;;;;;;14.33;11.40;;;10.40;99.90;;;;;;4996987;28;20406;-76
2023/03/30 04:47:41;;;;;;;17.60;12.07;;;10.40;99.90;;;;;;4996852;28;20178;-76
2023/03/30 04:50:08;;;;;;;20.30;11.23;;;10.40;99.90;;;;;;4996859;28;20433;-76
2023/03/30 04:52:33;;;;;;;15.70;10.77;;;10.40;99.90;;;;;;4996518;28;20415;-77
2023/03/30 04:54:58;;;;;;;15.00;11.47;;;10.50;99.90;;;;;;4996827;28;20419;-76
2023/03/30 04:57:24;;;;;;;19.40;10.90;;;10.40;99.90;;;;;;4995519;28;20271;-76
2023/03/30 04:59:49;;;;;;;16.60;10.80;;;10.40;99.90;;;;;;4996699;28;20192;-76
2023/03/30 05:02:15;;;;;;;15.73;11.53;;;10.40;99.90;;;;;;4996744;28;20190;-75
2023/03/30 05:04:41;;;;;;;15.60;12.60;;;10.40;99.90;;;;;;4996613;28;20198;-76
2023/03/30 05:07:07;;;;;;;12.93;9.87;;;10.30;99.90;;;;;;4996055;28;20538;-76
2023/03/30 05:09:33;;;;;;;14.33;10.47;;;10.30;99.90;;;;;;4996348;28;20226;-75
2023/03/30 05:11:59;;;;;;;15.10;9.57;;;10.20;99.90;;;;;;4996556;28;20423;-76
2023/03/30 05:14:24;;;;;;;16.53;11.40;;;10.20;99.90;;;;;;4996407;28;20182;-75
2023/03/30 05:16:50;;;;;;;17.37;11.63;;;10.30;99.90;;;;;;4996377;28;20211;-75
2023/03/30 05:19:18;;;;;;;18.77;11.90;;;10.30;99.90;;;;;;4995993;28;20183;-75
2023/03/30 05:21:44;;;;;;;19.63;13.13;;;10.40;99.90;;;;;;5011159;28;20424;-77
2023/03/30 05:24:12;;;;;;;17.67;10.73;;;10.40;99.90;;;;;;4996285;28;20928;-76
2023/03/30 05:26:38;;;;;;;16.73;13.02;;;10.40;99.90;;;;;;4994926;28;20444;-76
2023/03/30 05:29:03;;;;;;;16.37;11.73;;;10.60;99.90;;;;;;4996178;28;20165;-78
2023/03/30 05:31:28;;;;;;;15.03;9.50;;;10.70;99.90;;;;;;4994873;28;20180;-77
2023/03/30 05:33:54;;;;;;;15.80;9.80;;;10.60;99.90;;;;;;4996163;28;20595;-77
2023/03/30 05:36:19;;;;;;;13.13;9.93;;;10.70;99.90;;;;;;4994797;28;20195;-77
2023/03/30 05:38:47;;;;;;;13.87;8.90;;;10.60;99.90;;;;;;4994919;28;20181;-76
2023/03/30 05:41:19;;;;;;;11.63;9.23;;;10.70;99.90;;;;;;4994491;28;20164;-77
2023/03/30 05:43:46;;;;;;;15.93;10.33;;;10.70;99.90;;;;;;4995261;28;20409;-77
2023/03/30 05:46:11;;;;;;;13.53;9.10;;;10.80;99.90;;;;;;4995440;28;20512;-77
2023/03/30 05:48:37;;;;;;;12.93;8.57;;;10.80;99.90;;;;;;5010673;28;20510;-77
2023/03/30 05:51:03;;;;;;;15.00;8.60;;;10.90;99.90;;;;;;4995099;28;20196;-78
2023/03/30 05:53:28;;;;;;;13.20;10.30;;;11.00;99.90;;;;;;4994145;28;20178;-76
2023/03/30 05:55:54;;;;;;;12.47;8.40;;;11.00;99.90;;;;;;4993484;28;20586;-80
2023/03/30 05:58:19;;;;;;;12.40;8.57;;;11.00;99.90;;;;;;5009458;28;20197;-76
2023/03/30 06:00:47;;;;;;;12.40;7.60;;;11.00;99.90;;;;;;4995012;28;20185;-77
2023/03/30 06:03:13;;;;;;;9.60;8.20;;;11.00;99.90;;;;;;4995255;28;20939;-76
2023/03/30 06:05:40;;;;;;;12.90;8.33;;;11.00;99.90;;;;;;4994983;28;20904;-76
2023/03/30 06:08:07;;;;;;;14.60;7.73;;;11.00;99.90;;;;;;5010229;28;20437;-77
2023/03/30 06:10:33;;;;;;;16.07;8.57;;;11.10;99.90;;;;;;4995316;28;20436;-77
2023/03/30 06:12:59;;;;;;;12.10;7.17;;;11.20;99.90;;;;;;4994403;28;20430;-77
2023/03/30 06:15:28;;;;;;;13.10;7.97;;;11.20;99.90;;;;;;4994422;28;20412;-78
2023/03/30 06:17:53;;;;;;;11.67;7.53;;;11.30;99.90;;;;;;4995115;28;20913;-77
2023/03/30 06:20:20;;;;;;;12.80;7.87;;;11.30;99.90;;;;;;4994986;28;20418;-76
2023/03/30 06:22:46;;;;;;;10.87;7.20;;;11.40;99.90;;;;;;4994869;28;20175;-77
2023/03/30 06:25:13;;;;;;;7.30;6.60;;;11.40;99.90;;;;;;4995093;28;20763;-78
2023/03/30 06:27:38;;;;;;;8.67;5.90;;;11.50;99.90;;;;;;4994954;28;20463;-77
2023/03/30 06:30:04;;;;;;;9.83;5.57;;;11.50;99.90;;;;;;4994865;28;20920;-78
2023/03/30 06:32:30;;;;;;;8.20;5.33;;;11.60;99.90;;;;;;5009404;28;20182;-78
2023/03/30 06:34:55;;;;;;;9.80;5.90;;;11.70;99.90;;;;;;5008355;28;20484;-77
2023/03/30 06:37:21;;;;;;;7.53;5.70;;;11.80;99.90;;;;;;5009181;28;20223;-77
2023/03/30 06:39:46;;;;;;;7.87;5.47;;;11.90;99.90;;;;;;5009894;28;20179;-77
2023/03/30 06:42:12;;;;;;;13.07;5.60;;;11.90;99.90;;;;;;4994753;28;20709;-78
2023/03/30 06:44:38;;;;;;;6.33;4.63;;;12.00;99.90;;;;;;4994744;28;20183;-78
2023/03/30 06:47:04;;;;;;;11.80;5.17;;;12.20;99.90;;;;;;4994584;28;20248;-78
2023/03/30 06:49:30;;;;;;;11.67;5.87;;;12.20;99.90;;;;;;4994539;28;20968;-77
2023/03/30 06:51:56;;;;;;;7.90;5.67;;;12.40;99.90;;;;;;4994160;28;20418;-76
2023/03/30 06:54:22;;;;;;;8.60;5.10;;;12.60;99.90;;;;;;4994344;28;20405;-76
2023/03/30 06:56:48;;;;;;;8.90;5.07;;;12.70;99.90;;;;;;4994439;28;20476;-76
2023/03/30 06:59:14;;;;;;;7.67;4.93;;;12.90;99.90;;;;;;4994524;28;20274;-77
2023/03/30 07:01:40;;;;;;;6.70;5.10;;;13.10;99.90;;;;;;4994399;28;20454;-78
2023/03/30 07:04:06;;;;;;;8.17;4.23;;;13.30;99.90;;;;;;4994407;28;20638;-77
2023/03/30 07:06:31;;;;;;;8.90;5.03;;;13.50;99.90;;;;;;4994070;28;20451;-77
2023/03/30 07:08:57;;;;;;;8.13;4.33;;;13.70;99.90;;;;;;4994276;28;20626;-77
2023/03/30 07:11:22;;;;;;;9.33;4.00;;;14.40;99.90;;;;;;5009359;28;20241;-77
2023/03/30 07:13:48;;;;;;;6.17;4.07;;;15.00;99.90;;;;;;4994062;28;20184;-77
2023/03/30 07:16:13;;;;;;;5.33;3.43;;;15.20;99.90;;;;;;4994135;28;20195;-77
2023/03/30 07:18:39;;;;;;;4.43;2.70;;;15.40;99.90;;;;;;5009199;28;20171;-78
2023/03/30 07:21:04;;;;;;;5.00;3.33;;;15.90;99.90;;;;;;4993569;28;20629;-78
2023/03/30 07:23:30;;;;;;;7.73;3.10;;;16.30;1.00;;;;;;4993824;28;20181;-77
2023/03/30 07:25:55;;;;;;;6.00;3.03;;;16.60;1.00;;;;;;4992387;28;20232;-77
2023/03/30 07:28:21;;;;;;;6.00;2.83;;;16.70;1.00;;;;;;4993974;28;20185;-77
2023/03/30 07:30:46;;;;;;;5.53;2.60;;;16.80;1.00;;;;;;4993995;28;20530;-77
2023/03/30 07:33:13;;;;;;;4.67;2.50;;;17.20;1.00;;;;;;4993830;28;20531;-78
2023/03/30 07:35:46;;;;;;;7.10;2.67;;;17.30;99.90;;;;;;4993503;28;20579;-77
2023/03/30 07:38:13;;;;;;;6.63;3.90;;;17.30;1.00;;;;;;4993809;28;20471;-77
2023/03/30 07:40:39;;;;;;;6.93;3.27;;;17.20;99.90;;;;;;4993835;28;20422;-77
2023/03/30 07:43:05;;;;;;;4.80;2.50;;;16.90;1.00;;;;;;4993835;28;21011;-78
2023/03/30 07:45:31;;;;;;;6.87;3.10;;;16.70;1.00;;;;;;4993797;28;20860;-78
2023/03/30 07:47:56;;;;;;;3.80;3.17;;;16.60;1.00;;;;;;4993362;28;20507;-78
2023/03/30 07:50:24;;;;;;;5.63;4.93;;;16.40;43.70;;;;;;4993298;28;20263;-77
2023/03/30 07:52:50;;;;;;;5.27;3.53;;;16.30;49.20;;;;;;4993770;28;20191;-78
2023/03/30 07:55:16;;;;;;;6.70;3.37;;;16.00;1.00;;;;;;4993647;28;20414;-77
2023/03/30 07:57:41;;;;;;;4.73;2.30;;;15.50;99.90;;;;;;4993693;28;20986;-78
2023/03/30 08:00:12;;;;;;;7.80;2.97;;;15.20;1.00;;;;;;4993575;28;20412;-77
2023/03/30 08:02:38;;;;;;;6.90;2.37;;;15.00;1.00;;;;;;4993547;28;20187;-77
2023/03/30 08:05:04;;;;;;;5.07;2.50;;;14.80;1.00;;;;;;4996152;28;21013;-77
2023/03/30 08:07:29;;;;;;;3.40;1.70;;;14.50;1.00;;;;;;4999712;28;20165;-76
2023/03/30 08:09:55;;;;;;;5.93;2.20;;;14.20;37.90;;;;;;5000063;28;20422;-77
2023/03/30 08:12:21;;;;;;;6.47;2.90;;;14.10;99.90;;;;;;5000037;28;20497;-77
2023/03/30 08:14:46;;;;;;;3.70;2.00;;;14.10;99.90;;;;;;4999994;28;20171;-77
2023/03/30 08:17:12;;;;;;;4.97;2.10;;;14.10;99.90;;;;;;4999902;28;20266;-76
2023/03/30 08:19:37;;;;;;;2.90;1.80;;;14.30;99.90;;;;;;5000030;28;20167;-76
2023/03/30 08:22:03;;;;;;;3.93;2.63;;;14.40;99.90;;;;;;4999604;28;20179;-76
2023/03/30 08:24:29;;;;;;;3.63;1.53;;;14.50;99.90;;;;;;4999966;28;20169;-77
2023/03/30 08:26:54;;;;;;;6.80;2.67;;;14.70;99.90;;;;;;5014768;28;20683;-78
2023/03/30 08:29:20;;;;;;;4.70;1.70;;;15.10;99.90;;;;;;4999901;28;20201;-77
2023/03/30 08:31:46;;;;;;;4.50;2.37;;;15.60;1.00;;;;;;4999740;28;20567;-77
2023/03/30 08:34:11;;;;;;;3.17;1.83;;;15.70;1.00;;;;;;4999899;28;20176;-77
2023/03/30 08:36:37;;;;;;;5.83;2.23;;;15.70;1.00;;;;;;4999409;28;20198;-77
2023/03/30 08:39:03;;;;;;;7.33;2.30;;;15.50;1.00;;;;;;4999838;28;20201;-77
2023/03/30 08:41:29;;;;;;;3.63;1.97;;;15.40;1.00;;;;;;4999793;28;20794;-77
2023/03/30 08:44:38;;;;;;;5.40;2.00;;;15.40;1.00;;;;;;4999740;28;20425;-77
2023/03/30 08:47:09;;;;;;;4.30;1.93;;;15.10;43.30;;;;;;5004242;28;20186;-77
2023/03/30 08:49:40;;;;;;;4.03;1.77;;;15.40;99.90;;;;;;4999661;28;20905;-76
2023/03/30 08:52:11;;;;;;;4.50;1.60;;;15.90;99.90;;;;;;4999321;28;20417;-77
2023/03/30 08:54:36;;;;;;;2.60;1.47;;;16.70;99.90;;;;;;4999613;28;20402;-77
2023/03/30 08:57:19;;;;;;;4.23;1.73;;;17.60;1.00;;;;;;4999527;28;20836;-78
2023/03/30 09:00:29;;;;;;;6.30;2.03;;;18.20;99.90;;;;;;4999671;28;20694;-78
2023/03/30 09:03:26;;;;;;;4.37;1.40;;;17.90;1.00;;;;;;4999657;28;20537;-77
2023/03/30 09:05:55;;;;;;;3.27;1.40;;;18.30;1.00;;;;;;5005750;28;20451;-77
2023/03/30 09:08:23;;;;;;;3.77;1.30;;;19.50;1.00;;;;;;4999347;28;20438;-82
2023/03/30 09:11:02;;;;;;;4.30;1.70;;;20.10;99.90;;;;;;4991789;28;20508;-86
2023/03/30 09:13:32;;;;;;;4.83;1.97;;;20.40;99.90;;;;;;4998470;28;20497;-85
2023/03/30 09:16:39;;;;;;;5.67;1.93;;;21.20;1.00;;;;;;4997927;28;20465;-87
2023/03/30 09:19:17;;;;;;;5.10;1.90;;;21.80;1.00;;;;;;5010928;28;20450;-87
2023/03/30 09:21:43;;;;;;;5.10;2.00;;;22.40;1.00;;;;;;4995604;28;20426;-85
2023/03/30 09:24:17;;;;;;;3.90;1.57;;;23.40;1.00;;;;;;4997424;28;20755;-89
2023/03/30 09:27:10;;;;;;;3.17;2.00;;;23.80;1.00;;;;;;4997688;28;20557;-85
2023/03/30 09:29:47;;;;;;;4.17;1.50;;;24.00;99.90;;;;;;4995275;28;20824;-85
2023/03/30 09:32:36;;;;;;;2.13;1.20;;;23.10;99.90;;;;;;5009975;28;20926;-84
2023/03/30 09:35:20;;;;;;;4.13;1.83;;;22.10;99.90;;;;;;4996184;28;20432;-88
2023/03/30 09:37:46;;;;;;;3.07;1.33;;;21.10;99.90;;;;;;4995396;28;20477;-87
2023/03/30 09:40:39;;;;;;;2.90;0.73;;;20.30;99.90;;;;;;4993086;28;20442;-90
2023/03/30 09:43:34;;;;;;;4.13;1.33;;;19.50;1.00;;;;;;4996207;28;20214;-85
2023/03/30 09:46:05;;;;;;;4.40;1.53;;;19.00;1.00;;;;;;4995840;28;20422;-85
2023/03/30 09:48:47;;;;;;;3.57;1.53;;;18.70;1.00;;;;;;5010123;28;20418;-86
2023/03/30 09:51:17;;;;;;;6.40;1.23;;;18.20;11.60;;;;;;5009999;28;20423;-85
2023/03/30 09:54:05;;;;;;;3.50;1.07;;;18.00;99.90;;;;;;5010419;28;20428;-85
2023/03/30 09:56:45;;;;;;;4.03;1.10;;;17.30;99.90;;;;;;4996771;28;20841;-88
2023/03/30 09:59:24;;;;;;;4.27;1.40;;;17.30;1.00;;;;;;5009840;28;20451;-86
2023/03/30 10:01:51;;;;;;;2.57;1.07;;;17.20;1.00;;;;;;4993222;28;20430;-86
2023/03/30 10:04:17;;;;;;;3.40;1.33;;;17.00;1.00;;;;;;4993321;28;20427;-87
2023/03/30 10:06:49;;;;;;;3.33;0.90;;;16.60;1.00;;;;;;4993350;28;20432;-87
2023/03/30 10:09:20;;;;;;;4.10;1.47;;;16.30;1.00;;;;;;4994677;28;20976;-86
2023/03/30 10:11:51;;;;;;;2.93;1.10;;;16.00;99.90;;;;;;4995140;28;20412;-87
2023/03/30 10:14:35;;;;;;;4.10;1.70;;;15.70;1.00;;;;;;4977218;28;20436;-84
2023/03/30 10:17:03;;;;;;;3.47;1.63;;;15.60;1.00;;;;;;4993400;28;20487;-85
2023/03/30 10:19:31;;;;;;;3.27;0.93;;;15.80;44.60;;;;;;4993447;28;20862;-87
2023/03/30 10:21:58;;;;;;;6.10;1.67;;;15.80;99.90;;;;;;4994346;28;20512;-85
2023/03/30 10:24:27;;;;;;;3.93;1.50;;;16.20;74.10;;;;;;4993371;28;21093;-85
2023/03/30 10:27:08;;;;;;;1.70;1.03;;;16.50;29.20;;;;;;4994344;28;20504;-82
2023/03/30 10:29:34;;;;;;;6.63;0.87;;;17.00;12.10;;;;;;4994198;28;20492;-83
2023/03/30 10:32:16;;;;;;;3.97;1.33;;;17.50;1.00;;;;;;4994445;28;20519;-83
2023/03/30 10:34:44;;;;;;;4.00;1.17;;;18.00;1.00;;;;;;4994562;28;20177;-81
2023/03/30 10:37:17;;;;;;;5.33;1.27;;;18.20;99.90;;;;;;4994168;28;20474;-85
2023/03/30 10:39:46;;;;;;;4.13;0.43;;;18.50;1.00;;;;;;4994201;28;20454;-86
2023/03/30 10:42:19;;;;;;;4.33;0.60;;;18.50;99.90;;;;;;4994369;28;20940;-84
2023/03/30 10:44:50;;;;;;;3.80;0.50;;;18.50;1.00;;;;;;4994277;28;20425;-86
2023/03/30 10:47:27;;;;;;;5.73;1.27;;;18.70;1.00;;;;;;4994125;28;20471;-85
2023/03/30 10:50:09;;;;;;;3.37;0.77;;;19.00;99.90;;;;;;4993793;28;20419;-85
2023/03/30 10:52:45;;;;;;;2.50;0.47;;;20.00;1.00;;;;;;4993823;28;20511;-88
2023/03/30 10:55:19;;;;;;;1.87;0.20;;;20.80;1.00;;;;;;4994137;28;20490;-88
2023/03/30 10:58:18;;;;;;;3.33;0.50;;;20.90;99.90;;;;;;4994260;28;20475;-85
2023/03/30 11:01:10;;;;;;;2.87;0.90;;;20.90;99.90;;;;;;4994308;28;20410;-90
2023/03/30 11:03:37;;;;;;;4.63;0.80;;;21.00;99.90;;;;;;4994163;28;20408;-86
2023/03/30 11:06:09;;;;;;;2.33;0.43;;;21.30;99.90;;;;;;4993925;28;20426;-83
2023/03/30 11:08:39;;;;;;;3.83;0.50;;;21.80;99.90;;;;;;4993899;28;20411;-84
2023/03/30 11:11:08;;;;;;;1.00;0.50;;;22.10;99.90;;;;;;4994180;28;20423;-85
2023/03/30 11:13:41;;;;;;;3.00;0.70;;;22.50;99.90;;;;;;4994121;28;20460;-90
2023/03/30 11:16:15;;;;;;;1.37;0.30;;;22.80;99.90;;;;;;4992502;28;20426;-86
2023/03/30 11:18:57;;;;;;;1.93;0.47;;;22.20;99.90;;;;;;5008790;28;20943;-83
2023/03/30 11:21:32;;;;;;;1.57;0.30;;;21.90;99.90;;;;;;4993206;28;20475;-86
2023/03/30 11:24:20;;;;;;;2.13;0.97;;;21.70;99.90;;;;;;4993666;28;20431;-84
2023/03/30 11:26:55;;;;;;;2.17;1.23;;;21.40;99.90;;;;;;4993735;28;20831;-83
2023/03/30 11:29:36;;;;;;;2.60;0.63;;;20.70;99.90;;;;;;4993546;28;20418;-83
2023/03/30 11:32:31;;;;;;;4.13;0.60;;;19.90;99.90;;;;;;4993450;28;20426;-81
2023/03/30 11:35:18;;;;;;;4.67;0.77;;;19.50;99.90;;;;;;4989466;28;20434;-83
2023/03/30 11:37:59;;;;;;;4.77;0.90;;;19.50;99.90;;;;;;4982119;28;20580;-81
2023/03/30 11:40:39;;;;;;;3.20;1.03;;;20.00;99.90;;;;;;4979799;28;20418;-83
2023/03/30 11:43:09;;;;;;;3.27;0.73;;;20.30;99.90;;;;;;5008355;28;20508;-83
2023/03/30 11:45:47;;;;;;;2.77;0.73;;;20.20;99.90;;;;;;4993057;28;20471;-84
2023/03/30 11:48:32;;;;;;;4.13;0.57;;;20.00;99.90;;;;;;5008021;28;20431;-84
2023/03/30 11:51:37;;;;;;;1.97;0.60;;;19.90;99.90;;;;;;5007860;28;20407;-82
2023/03/30 11:54:21;;;;;;;3.50;0.87;;;19.50;99.90;;;;;;5008078;28;20518;-82
2023/03/30 11:56:55;;;;;;;1.57;0.30;;;18.90;99.90;;;;;;4992809;28;20488;-82
2023/03/30 12:00:15;;;;;;;3.03;0.50;;;18.70;99.90;;;;;;4991635;28;20430;-82
2023/03/30 12:03:06;;;;;;;3.73;0.53;;;18.50;99.90;;;;;;4971009;28;20427;-82
2023/03/30 12:05:43;;;;;;;4.53;0.63;;;18.40;99.90;;;;;;4990828;28;20763;-85
2023/03/30 12:08:30;;;;;;;3.47;0.50;;;18.60;99.90;;;;;;4992802;28;20782;-82
2023/03/30 12:11:16;;;;;;;2.47;0.40;;;18.70;99.90;;;;;;4991807;28;20426;-83
2023/03/30 12:13:43;;;;;;;2.17;0.30;;;18.90;99.90;;;;;;4991761;28;20561;-83
2023/03/30 12:16:15;;;;;;;1.80;0.27;;;19.20;99.90;;;;;;4991563;28;20954;-83
2023/03/30 12:19:03;;;;;;;2.27;0.40;;;18.90;99.90;;;;;;4991489;28;20498;-85
2023/03/30 12:22:10;;;;;;;5.50;1.13;;;19.10;99.90;;;;;;4992361;28;20440;-84
2023/03/30 12:25:15;;;;;;;2.23;0.33;;;19.50;99.90;;;;;;4991320;28;20429;-85
2023/03/30 12:28:19;;;;;;;2.80;0.30;;;19.40;99.90;;;;;;4987229;28;20443;-84
2023/03/30 12:30:51;;;;;;;5.80;0.50;;;18.40;99.90;;;;;;4971248;28;20439;-83
2023/03/30 12:33:45;;;;;;;2.10;0.30;;;17.80;99.90;;;;;;4959637;28;20445;-82
2023/03/30 12:36:39;;;;;;;2.30;0.20;;;17.30;99.90;;;;;;5007917;28;20517;-83
2023/03/30 12:39:17;;;;;;;3.60;0.30;;;17.10;99.90;;;;;;4993368;28;20431;-82
2023/03/30 12:41:48;;;;;;;3.20;0.40;;;16.90;99.90;;;;;;4991929;28;20427;-83
2023/03/30 12:44:31;;;;;;;5.20;0.47;;;16.70;99.90;;;;;;4992076;28;20444;-83
2023/03/30 12:47:26;;;;;;;7.73;1.03;;;16.80;99.90;;;;;;5006741;28;20531;-83
2023/03/30 12:50:26;;;;;;;3.40;0.30;;;16.80;1.00;;;;;;5005948;28;20433;-83
2023/03/30 12:53:29;;;;;;;3.73;0.30;;;17.10;1.00;;;;;;4995560;28;21185;-84
2023/03/30 12:56:19;;;;;;;4.73;0.40;;;17.70;99.90;;;;;;4995549;28;20454;-81
2023/03/30 12:59:22;;;;;;;4.70;0.50;;;18.50;99.90;;;;;;4996908;28;20440;-82
2023/03/30 13:02:10;;;;;;;4.30;0.50;;;19.30;99.90;;;;;;5011847;28;20442;-83
2023/03/30 13:04:57;;;;;;;6.27;1.40;;;19.40;99.90;;;;;;5011257;28;20426;-81
2023/03/30 13:07:35;;;;;;;2.50;0.43;;;19.10;99.90;;;;;;4996637;28;20422;-82